Daniel Field
KDNL : now visible

Airfield :











YOU CAN JOIN US ON...

 
LOGIN :

Register | Disclaimer

   EN    FR    IT 

 









Legend :    VFR   Marginal VFR   IFR   Intensive IFR   Very Intensive IFR
Visi :
Ceiling :
>= 8 km
>= 3000ft
5 to 8 km
1000 to 3000 ft
1500m to 5 km
500 to 1000 ft
800 to 1500m
200 to 500 ft
< 800m
< 200 ft
Symbols :   Thunderstorms  Fog  Heavy snow  Heavy precipitations  Wind > 20 kt






- Airport Elevation : 423 ft


KDNL - Daniel Field

CURRENT METAR :
  • 181353Z AUTO 34006KT 10SM CLR 25/14 A3010 RMK AO2 SLP188 T02500144

EXPIRED METARs :
  • 181253Z AUTO 00000KT 10SM CLR 22/15 A3010 RMK AO2 SLP187 T02170150
  • 181153Z AUTO 24003KT 10SM CLR 18/14 A3009 RMK AO2 SLP186 T01830144 10228 20178 53009
  • 181053Z AUTO 00000KT 10SM CLR 18/14 A3009 RMK AO2 SLP183 T01830139
  • 180953Z AUTO 00000KT 10SM CLR 19/14 A3007 RMK AO2 SLP179 T01890144
  • 180853Z AUTO 00000KT 10SM CLR 19/14 A3007 RMK AO2 SLP177 T01940144 55001

TAF KDNL
Valid from the 18 at 12:00 until the 19 at 12:00 UTC


181128Z 1812/1912 VRB03KT P6SM FEW250
FM181400 28005KT P6SM FEW250
FM182000 22005KT P6SM SKC
KZTL FIR / North America



MET'MAP, your aeronautical weather chart ! - Copyright ORBIFLY December 2007 - Disclaimer

ORBIFLY MET'MAP TEAM :

Programming & Development : Alexandra Zaïnal
Original concept : Baudouin d'Aumeries
Technical & hardware support : Manuel Goepfert
Assistance : Marc-Olivier Méhu




SOURCES & CREDITS :

   NOAA       Earth
Advisory